КЛИМАТИЧНИ ДАННИ

ВЧЕРА
Time Temp. Dewp. Hum. Посока н Скорост на Пориви на Bar.
00:01 -1.6 -3.1 88 270 0.3 1.1 990.9
00:12 -1.6 -3.1 88 270 0.3 1.1 990.9
00:22 -1.6 -3.1 88 270 0.3 1.1 991.1
00:31 -1.7 -3.2 88 270 0.3 1.1 991.4
00:42 -1.7 -3.1 89 0 0 991.4
00:54 -1.8 -3.3 88 270 0.3 1.1 991.5
01:05 -1.8 -3.3 88 270 0.3 0.8 992
01:15 -1.9 -3.4 88 270 0.3 0.8 992.3
01:25 -2 -3.5 88 270 0.3 0.8 992.5
01:35 -2.1 -3.6 88 0 0 992.8
01:45 -2.2 -3.7 88 0 0 993
01:55 -2.2 -3.6 89 0 0 993.1
02:05 -2.4 -3.9 88 0 0 993.4
02:15 -2.4 -3.8 89 0 0 993.4
02:25 -2.5 -4 88 0 0 994
02:35 -2.5 -3.9 89 0 0 994
02:45 -2.5 -3.9 89 0 0 994.4
02:56 -2.5 -3.9 89 0 0 994.4
03:05 -2.5 -3.9 89 0 0 994.5
03:15 -2.6 -4 89 0 0 994.5
03:26 -2.7 -4.1 89 0 0 994.5
03:36 -2.8 -4.2 89 0 0 994.6
03:45 -3 -4.5 88 0 0 993.9
03:56 -3.1 -4.6 88 0 0 993.6
04:06 -3.2 -4.7 88 0 0 992.9
04:16 -3.4 -4.8 89 0 0 993.4
04:26 -3.6 -5.1 88 0 0 994.2
04:36 -3.8 -5.3 88 0 0 994.5
04:46 -4 -5.5 88 0 0 994.9
04:56 -4.3 -5.8 88 0 0 995.4
05:01 -4.4 -6 87 270 0.3 0.8 995.4
05:12 -4.6 -6.2 87 0 0.3 995.5
05:22 -4.9 -6.5 87 0 0.3 995.6
05:31 -5.1 -6.9 86 0 0.3 995.5
05:41 -5.3 -7 86 0 0 995.7
05:52 -5.5 -7.2 86 0 0 995.7
06:02 -5.5 -7.1 87 0 0 995.8
06:12 -5.5 -7.1 87 0 0 995.8
06:22 -5.6 -7.2 87 0 0 995.3
06:33 -5.4 -6.9 88 0 0.3 995.9
06:42 -5.4 -6.9 88 270 0.3 0.8 996.1
06:52 -5.4 -6.9 88 0 0.3 996.3
07:03 -5.2 -6.7 88 216 0.3 0.8 996.4
07:13 -5 -6.4 89 270 0.3 0.8 996.7
07:23 -4.7 -5.9 90 270 0.3 0.8 996.6
07:33 -4.6 -5.8 90 0 0.3 996.5
07:43 -4.5 -5.7 90 270 0.3 0.8 996.5
07:53 -4.3 -5.5 90 234 0.3 0.8 996.7
08:03 -4.2 -5.4 90 0 0.8 997.2
08:14 -4.1 -5.5 89 348 0.3 0.3 997.1
08:23 -4.2 -5.6 89 306 0.3 0.8 996.9
08:33 -4.3 -5.7 89 315 0.3 0.8 996.5
08:43 -4.3 -5.7 89 270 0.3 1.1 996.6
08:54 -4.2 -5.6 89 237 0.3 1.1 997.5
09:04 -3.7 -4.8 91 292 0.8 1.7 997.7
09:13 -3.2 -4.4 90 209 0.8 2.2 997.7
09:24 -3 -4.1 91 236 0.3 0.8 997.9
09:34 -2.7 -3.8 91 270 0.3 0.8 997.7
09:44 -2.3 -3.4 91 225 0.3 1.1 997.8
09:54 -1.6 -2.7 91 188 0.3 1.1 998.1
10:04 -1.1 -2.2 91 212 0.3 1.1 998.3
10:14 -0.5 -1.8 90 176 0.3 1.1 998.1
10:24 0 -1.4 89 225 0.3 0.8 998
10:35 0.3 -1.4 87 225 0.3 0.8 998
10:44 0.6 -1.3 86 161 0.3 0.8 997.9
10:54 0.9 -1.2 85 194 0.3 0.8 998.2
11:04 1.2 -1.1 84 225 0.3 1.4 998.2
11:15 1.4 -1 83 186 0.8 2.2 998.1
11:25 1.5 -1.1 82 174 0.8 1.7 998.3
11:34 1.6 -1 82 187 0.8 2.2 998.3
11:45 1.7 -1.1 81 174 0.8 1.4 998.2
11:55 1.8 -1 81 168 0.3 1.1 998
12:05 2 -1 80 135 0.3 1.4 997.9
12:15 2.1 -0.9 80 196 0.8 2.5 998
12:25 2.3 -0.7 80 180 0.3 1.4 997.8
12:35 2.4 -0.8 79 176 0.8 2.2 997.7
12:45 2.5 -0.7 79 181 1.1 2.8 997.9
12:56 2.8 -0.9 76 229 1.4 5 998.1
13:06 3.1 -1.1 73 289 1.4 3.9 998.3
13:15 3.3 -0.8 74 270 0.8 2.8 998.2
13:26 3.5 -0.9 72 270 0.8 3.1 998.3
13:36 3.6 -0.9 72 213 0.8 2.2 998.7
13:46 3.7 -0.9 71 225 0.8 2.2 998.7
13:56 3.7 -1.1 70 197 1.1 2.8 998.9
14:06 3.5 -0.8 73 229 0.3 1.7 999.2
14:16 3.1 -1 74 270 0.3 1.1 999.6
14:26 2.6 -1.4 74 270 0.3 0.8 999.9
14:36 2.2 -1.6 75 45 0.3 0.8 1000.3
14:47 1.8 -1.7 76 343 0.3 1.1 1000.5
14:56 1.5 -2.2 75 270 0.3 1.4 1000.4
15:06 1.2 -2.3 76 315 0.3 0.8 1000.4
15:16 1.2 -2.3 76 45 0.8 2.2 1000.5
15:27 0.8 -2.4 77 270 0.3 1.4 1000.5
15:37 0.4 -2.6 78 318 0.8 1.4 1000.8
15:46 0.1 -2.9 78 15 0.3 0.8 1000.8
15:57 0 -2.8 79 270 0.3 1.1 1001.3
16:07 -0.3 -3 80 354 0.3 1.1 1001.5
16:17 -0.6 -3.3 80 301 0.3 1.4 1002
16:27 -0.8 -3.5 80 315 0.3 1.1 1002.2
16:37 -1 -3.5 81 186 0.3 0.8 1002.4
16:47 -1.3 -3.8 81 329 0.3 0.8 1002.8
16:57 -1.5 -4 81 270 0.3 1.1 1003.1
17:08 -1.6 -4 82 270 0.3 0.8 1003.7
17:18 -1.8 -4.2 82 327 0.3 1.1 1003.9
17:27 -2 -4.2 83 216 0.3 1.1 1004.1
17:37 -2.1 -4.3 83 270 0.3 1.1 1004.2
17:48 -2.4 -4.6 83 270 0.3 1.1 1004.7
17:58 -2.5 -4.7 83 204 0.3 1.1 1004.8
18:08 -2.7 -4.9 83 237 0.3 0.8 1004.8
18:18 -2.8 -4.9 84 0.3 0.8 1005.2
18:28 -2.9 -5 84 239 0.3 1.1 1005.3
18:38 -3 -5.1 84 270 0.3 0.8 1005.5
18:48 -3.2 -5.3 84 315 0.3 0.8 1005.7
18:59 -3.3 -5.2 85 270 0.3 0.8 1006.1
19:08 -3.4 -5.4 84 270 0.3 0.8 1006.4
19:18 -3.5 -5.4 85 270 0.3 0.8 1006.6
19:29 -3.7 -5.6 85 270 0.3 0.8 1006.8
19:39 -3.9 -5.9 84 270 0.3 0.8 1006.9
19:48 -3.9 -5.9 84 270 0.3 0.8 1007.1
19:58 -4 -5.9 85 270 0.3 0.8 1007.2
20:09 -4 -5.9 85 270 0.3 0.8 1007.2
20:19 -4.1 -6 85 315 0.3 0.8 1007.3
20:28 -4.1 -6 85 315 0.3 0.8 1007.4
20:39 -4 -5.8 86 315 0.3 0.8 1007.7
20:44 -4 -5.8 86 315 0.3 0.8 1007.8
20:54 -3.9 -5.7 86 315 0.3 0.8 1007.9
21:04 -3.8 -5.4 87 345 0.3 0.8 1008.1
21:14 -3.8 -5.4 87 307 0.3 0.8 1008.1
21:24 -3.9 -5.7 86 307 0.3 0.8 1008.3
21:34 -3.9 -5.7 86 307 0.3 0.8 1008.5
21:44 -3.9 -5.5 87 307 0.3 0.8 1008.8
21:55 -4.1 -5.9 86 0 0 1008.8
22:04 -4.2 -6 86 0 0 1008.8
22:11 -4.3 -6.1 86 307 0.3 0.8 1008.8
22:21 -4.4 -6.3 85 213 0.3 0.8 1008.9
22:31 -4.5 -6.3 86 0 0.8 1009
22:42 -4.5 -6.3 86 0 0.8 1009.3
22:52 -4.4 -6 87 0 0.8 1009.3
23:06 -4.4 -6 87 0 0 1009.5
23:17 -4.5 -6.3 86 0 0 1009.8
23:27 -4.6 -6.4 86 0 0 1009.8
23:37 -4.9 -6.8 85 0 0 1009.9
23:47 -5 -6.8 86 0 0 1009.8
23:57 -5.1 -7 85 0 0 1010.1

ДНЕВНИ СТАТИСТИКИ

2019-12-14
ТЕМПЕРАТУРА
СРЕДНО
-2.1
ВИСОКО
3.7
13:46
МИНИМУМ
-5.6
06:22
АТМОСФЕРНО НАЛЯГАНЕ
СРЕДНО
999.8
ВИСОКО
1010.1
23:57
МИНИМУМ
990.9
00:01
ТОЧКА НА ОРОСЯВАНЕ
СРЕДНО
-4.2
ВИСОКО
-0.7
12:25
МИНИМУМ
-7.2
05:52
ОТНОСИТЕЛНА ВЛАЖНОСТ
СРЕДНО
85
ВИСОКО
91
09:04
МИНИМУМ
70
13:56
СКОРОСТ НА ВЯТЪРА
СРЕДНО
0.3
ВИСОКО
1.4
12:56
ПОРИВИ НА ВЯТЪРА
СРЕДНО
0.9
ВИСОКО
5.0
12:56
ПОСОКА НА ВЯТЪРА
PREVAILING
W
33.9%
N
4.6
NE
1.8
E
0.0
SE
0.9
S
14.7
SW
16.5
W
33.9
NW
17.4
ТЕМПЕРАТУРА (°C)
МИНИМУМ
-5.6
ВИСОКО
3.7
СРЕДНО
-2.1
АТМОСФЕРНО НАЛЯГАНЕ (hpa)
МИНИМУМ
990.9
ВИСОКО
1010.1
СРЕДНО
999.8
DEVICE